sensor_id;sensor_type;location;lat;lon;timestamp;temperature;humidity
13992;DHT22;7070;53.586;9.692;2023-09-07T00:01:58;18.40;85.70
13992;DHT22;7070;53.586;9.692;2023-09-07T00:04:25;18.30;85.60
13992;DHT22;7070;53.586;9.692;2023-09-07T00:06:53;18.20;85.70
13992;DHT22;7070;53.586;9.692;2023-09-07T00:09:20;18.20;85.80
13992;DHT22;7070;53.586;9.692;2023-09-07T00:11:47;18.20;86.00
13992;DHT22;7070;53.586;9.692;2023-09-07T00:14:15;18.20;86.00
13992;DHT22;7070;53.586;9.692;2023-09-07T00:16:41;18.10;86.00
13992;DHT22;7070;53.586;9.692;2023-09-07T00:19:09;18.10;86.00
13992;DHT22;7070;53.586;9.692;2023-09-07T00:21:36;18.10;86.10
13992;DHT22;7070;53.586;9.692;2023-09-07T00:24:05;18.10;86.30
13992;DHT22;7070;53.586;9.692;2023-09-07T00:26:32;18.10;86.30
13992;DHT22;7070;53.586;9.692;2023-09-07T00:29:02;18.00;86.40
13992;DHT22;7070;53.586;9.692;2023-09-07T00:31:29;18.00;86.30
13992;DHT22;7070;53.586;9.692;2023-09-07T00:33:56;18.00;86.40
13992;DHT22;7070;53.586;9.692;2023-09-07T00:36:23;18.00;86.40
13992;DHT22;7070;53.586;9.692;2023-09-07T00:38:49;17.90;86.40
13992;DHT22;7070;53.586;9.692;2023-09-07T00:41:18;18.00;86.40
13992;DHT22;7070;53.586;9.692;2023-09-07T00:43:44;17.90;86.40
13992;DHT22;7070;53.586;9.692;2023-09-07T00:46:11;17.90;86.40
13992;DHT22;7070;53.586;9.692;2023-09-07T00:48:38;17.80;86.30
13992;DHT22;7070;53.586;9.692;2023-09-07T00:51:06;17.80;86.40
13992;DHT22;7070;53.586;9.692;2023-09-07T00:53:33;17.80;86.50
13992;DHT22;7070;53.586;9.692;2023-09-07T00:56:00;17.70;86.40
13992;DHT22;7070;53.586;9.692;2023-09-07T00:58:30;17.70;87.30
13992;DHT22;7070;53.586;9.692;2023-09-07T01:00:57;17.70;87.30
13992;DHT22;7070;53.586;9.692;2023-09-07T01:03:25;17.70;87.60
13992;DHT22;7070;53.586;9.692;2023-09-07T01:05:58;17.60;87.50
13992;DHT22;7070;53.586;9.692;2023-09-07T01:08:29;17.70;86.90
13992;DHT22;7070;53.586;9.692;2023-09-07T01:10:58;17.70;87.10
13992;DHT22;7070;53.586;9.692;2023-09-07T01:13:25;17.70;87.30
13992;DHT22;7070;53.586;9.692;2023-09-07T01:15:53;17.70;87.40
13992;DHT22;7070;53.586;9.692;2023-09-07T01:18:20;17.70;87.30
13992;DHT22;7070;53.586;9.692;2023-09-07T01:20:48;17.70;87.40
13992;DHT22;7070;53.586;9.692;2023-09-07T01:23:17;17.70;87.40
13992;DHT22;7070;53.586;9.692;2023-09-07T01:25:43;17.70;87.40
13992;DHT22;7070;53.586;9.692;2023-09-07T01:28:11;17.70;87.40
13992;DHT22;7070;53.586;9.692;2023-09-07T01:30:39;17.60;87.30
13992;DHT22;7070;53.586;9.692;2023-09-07T01:33:07;17.60;87.30
13992;DHT22;7070;53.586;9.692;2023-09-07T01:35:35;17.60;87.20
13992;DHT22;7070;53.586;9.692;2023-09-07T01:38:03;17.50;87.10
13992;DHT22;7070;53.586;9.692;2023-09-07T01:40:31;17.50;87.20
13992;DHT22;7070;53.586;9.692;2023-09-07T01:42:58;17.50;87.20
13992;DHT22;7070;53.586;9.692;2023-09-07T01:45:25;17.50;87.20
13992;DHT22;7070;53.586;9.692;2023-09-07T01:47:51;17.40;87.20
13992;DHT22;7070;53.586;9.692;2023-09-07T01:50:18;17.40;87.90
13992;DHT22;7070;53.586;9.692;2023-09-07T01:52:46;17.40;88.00
13992;DHT22;7070;53.586;9.692;2023-09-07T01:55:14;17.30;87.40
13992;DHT22;7070;53.586;9.692;2023-09-07T01:57:42;17.40;87.50
13992;DHT22;7070;53.586;9.692;2023-09-07T02:00:10;17.30;87.30
13992;DHT22;7070;53.586;9.692;2023-09-07T02:02:37;17.30;87.40
13992;DHT22;7070;53.586;9.692;2023-09-07T02:05:05;17.30;87.40
13992;DHT22;7070;53.586;9.692;2023-09-07T02:07:32;17.20;87.30
13992;DHT22;7070;53.586;9.692;2023-09-07T02:09:58;17.30;87.50
13992;DHT22;7070;53.586;9.692;2023-09-07T02:12:25;17.20;87.50
13992;DHT22;7070;53.586;9.692;2023-09-07T02:14:53;17.20;87.60
13992;DHT22;7070;53.586;9.692;2023-09-07T02:17:20;17.20;87.70
13992;DHT22;7070;53.586;9.692;2023-09-07T02:19:47;17.30;87.90
13992;DHT22;7070;53.586;9.692;2023-09-07T02:22:14;17.20;87.80
13992;DHT22;7070;53.586;9.692;2023-09-07T02:24:41;17.20;87.80
13992;DHT22;7070;53.586;9.692;2023-09-07T02:27:07;17.20;87.90
13992;DHT22;7070;53.586;9.692;2023-09-07T02:29:34;17.20;87.80
13992;DHT22;7070;53.586;9.692;2023-09-07T02:32:03;17.20;88.00
13992;DHT22;7070;53.586;9.692;2023-09-07T02:34:30;17.30;88.10
13992;DHT22;7070;53.586;9.692;2023-09-07T02:36:57;17.20;88.00
13992;DHT22;7070;53.586;9.692;2023-09-07T02:39:24;17.20;88.00
13992;DHT22;7070;53.586;9.692;2023-09-07T02:41:51;17.20;88.10
13992;DHT22;7070;53.586;9.692;2023-09-07T02:44:18;17.20;88.00
13992;DHT22;7070;53.586;9.692;2023-09-07T02:46:45;17.20;88.10
13992;DHT22;7070;53.586;9.692;2023-09-07T02:49:13;17.20;88.10
13992;DHT22;7070;53.586;9.692;2023-09-07T02:51:40;17.20;88.00
13992;DHT22;7070;53.586;9.692;2023-09-07T02:54:07;17.20;88.10
13992;DHT22;7070;53.586;9.692;2023-09-07T02:56:34;17.20;88.00
13992;DHT22;7070;53.586;9.692;2023-09-07T02:59:01;17.10;88.00
13992;DHT22;7070;53.586;9.692;2023-09-07T03:01:28;17.10;88.00
13992;DHT22;7070;53.586;9.692;2023-09-07T03:03:55;17.10;88.00
13992;DHT22;7070;53.586;9.692;2023-09-07T03:06:24;17.00;87.90
13992;DHT22;7070;53.586;9.692;2023-09-07T03:08:50;17.00;87.90
13992;DHT22;7070;53.586;9.692;2023-09-07T03:11:18;17.00;87.90
13992;DHT22;7070;53.586;9.692;2023-09-07T03:13:45;17.00;87.90
13992;DHT22;7070;53.586;9.692;2023-09-07T03:16:12;16.90;87.80
13992;DHT22;7070;53.586;9.692;2023-09-07T03:18:39;17.00;88.20
13992;DHT22;7070;53.586;9.692;2023-09-07T03:21:06;16.90;88.00
13992;DHT22;7070;53.586;9.692;2023-09-07T03:23:34;16.90;88.00
13992;DHT22;7070;53.586;9.692;2023-09-07T03:26:01;16.90;88.00
13992;DHT22;7070;53.586;9.692;2023-09-07T03:28:28;16.90;88.20
13992;DHT22;7070;53.586;9.692;2023-09-07T03:30:55;16.90;88.20
13992;DHT22;7070;53.586;9.692;2023-09-07T03:33:22;16.90;88.20
13992;DHT22;7070;53.586;9.692;2023-09-07T03:35:49;16.90;88.30
13992;DHT22;7070;53.586;9.692;2023-09-07T03:38:17;16.90;88.20
13992;DHT22;7070;53.586;9.692;2023-09-07T03:40:45;16.80;88.10
13992;DHT22;7070;53.586;9.692;2023-09-07T03:43:12;16.80;88.20
13992;DHT22;7070;53.586;9.692;2023-09-07T03:45:39;16.80;88.30
13992;DHT22;7070;53.586;9.692;2023-09-07T03:48:06;16.80;88.30
13992;DHT22;7070;53.586;9.692;2023-09-07T03:50:34;16.80;88.40
13992;DHT22;7070;53.586;9.692;2023-09-07T03:53:02;16.80;88.40
13992;DHT22;7070;53.586;9.692;2023-09-07T03:55:29;16.80;88.50
13992;DHT22;7070;53.586;9.692;2023-09-07T03:57:57;16.80;88.60
13992;DHT22;7070;53.586;9.692;2023-09-07T04:00:24;16.80;88.60
13992;DHT22;7070;53.586;9.692;2023-09-07T04:02:51;16.80;88.60
13992;DHT22;7070;53.586;9.692;2023-09-07T04:05:18;16.80;88.60
13992;DHT22;7070;53.586;9.692;2023-09-07T04:07:45;16.80;88.70
13992;DHT22;7070;53.586;9.692;2023-09-07T04:10:12;16.80;88.70
13992;DHT22;7070;53.586;9.692;2023-09-07T04:12:39;16.90;88.90
13992;DHT22;7070;53.586;9.692;2023-09-07T04:15:09;16.90;88.90
13992;DHT22;7070;53.586;9.692;2023-09-07T04:17:37;16.80;88.70
13992;DHT22;7070;53.586;9.692;2023-09-07T04:20:07;16.90;88.80
13992;DHT22;7070;53.586;9.692;2023-09-07T04:22:34;16.90;88.90
13992;DHT22;7070;53.586;9.692;2023-09-07T04:25:02;16.80;88.80
13992;DHT22;7070;53.586;9.692;2023-09-07T04:27:30;16.80;88.90
13992;DHT22;7070;53.586;9.692;2023-09-07T04:29:56;16.90;89.00
13992;DHT22;7070;53.586;9.692;2023-09-07T04:32:25;16.80;88.90
13992;DHT22;7070;53.586;9.692;2023-09-07T04:34:53;16.80;88.90
13992;DHT22;7070;53.586;9.692;2023-09-07T04:37:21;16.80;88.90
13992;DHT22;7070;53.586;9.692;2023-09-07T04:39:51;16.80;89.00
13992;DHT22;7070;53.586;9.692;2023-09-07T04:42:19;16.90;89.00
13992;DHT22;7070;53.586;9.692;2023-09-07T04:44:46;16.80;89.00
13992;DHT22;7070;53.586;9.692;2023-09-07T04:47:13;16.80;89.00
13992;DHT22;7070;53.586;9.692;2023-09-07T04:49:42;16.80;89.10
13992;DHT22;7070;53.586;9.692;2023-09-07T04:52:09;16.80;89.00
13992;DHT22;7070;53.586;9.692;2023-09-07T04:54:36;16.80;89.00
13992;DHT22;7070;53.586;9.692;2023-09-07T04:57:03;16.80;89.00
13992;DHT22;7070;53.586;9.692;2023-09-07T04:59:30;16.80;89.10
13992;DHT22;7070;53.586;9.692;2023-09-07T05:01:59;16.80;89.10
13992;DHT22;7070;53.586;9.692;2023-09-07T05:04:27;16.90;89.20
13992;DHT22;7070;53.586;9.692;2023-09-07T05:06:56;16.90;89.30
13992;DHT22;7070;53.586;9.692;2023-09-07T05:09:23;16.90;90.00
13992;DHT22;7070;53.586;9.692;2023-09-07T05:11:51;16.90;89.20
13992;DHT22;7070;53.586;9.692;2023-09-07T05:14:18;16.90;89.40
13992;DHT22;7070;53.586;9.692;2023-09-07T05:16:45;17.00;89.40
13992;DHT22;7070;53.586;9.692;2023-09-07T05:19:11;17.00;89.40
13992;DHT22;7070;53.586;9.692;2023-09-07T05:21:38;17.00;89.40
13992;DHT22;7070;53.586;9.692;2023-09-07T05:24:07;17.00;89.50
13992;DHT22;7070;53.586;9.692;2023-09-07T05:26:34;17.00;89.40
13992;DHT22;7070;53.586;9.692;2023-09-07T05:29:01;17.10;90.10
13992;DHT22;7070;53.586;9.692;2023-09-07T05:31:27;17.10;89.60
13992;DHT22;7070;53.586;9.692;2023-09-07T05:33:54;17.10;89.70
13992;DHT22;7070;53.586;9.692;2023-09-07T05:36:21;17.10;89.80
13992;DHT22;7070;53.586;9.692;2023-09-07T05:38:48;17.20;90.30
13992;DHT22;7070;53.586;9.692;2023-09-07T05:41:16;17.30;90.00
13992;DHT22;7070;53.586;9.692;2023-09-07T05:43:43;17.40;90.10
13992;DHT22;7070;53.586;9.692;2023-09-07T05:46:10;17.40;90.00
13992;DHT22;7070;53.586;9.692;2023-09-07T05:48:37;17.50;90.00
13992;DHT22;7070;53.586;9.692;2023-09-07T05:51:04;17.50;90.00
13992;DHT22;7070;53.586;9.692;2023-09-07T05:53:31;17.70;90.10
13992;DHT22;7070;53.586;9.692;2023-09-07T05:55:57;17.70;90.10
13992;DHT22;7070;53.586;9.692;2023-09-07T05:58:26;17.80;90.10
13992;DHT22;7070;53.586;9.692;2023-09-07T06:00:53;17.90;90.10
13992;DHT22;7070;53.586;9.692;2023-09-07T06:03:20;18.00;90.10
13992;DHT22;7070;53.586;9.692;2023-09-07T06:05:47;18.00;90.10
13992;DHT22;7070;53.586;9.692;2023-09-07T06:08:14;18.10;90.10
13992;DHT22;7070;53.586;9.692;2023-09-07T06:10:41;18.20;90.10
13992;DHT22;7070;53.586;9.692;2023-09-07T06:13:08;18.30;90.20
13992;DHT22;7070;53.586;9.692;2023-09-07T06:15:36;18.40;90.10
13992;DHT22;7070;53.586;9.692;2023-09-07T06:18:03;18.40;90.00
13992;DHT22;7070;53.586;9.692;2023-09-07T06:20:30;18.50;90.00
13992;DHT22;7070;53.586;9.692;2023-09-07T06:22:57;18.60;90.00
13992;DHT22;7070;53.586;9.692;2023-09-07T06:25:24;18.60;90.00
13992;DHT22;7070;53.586;9.692;2023-09-07T06:27:51;18.80;90.00
13992;DHT22;7070;53.586;9.692;2023-09-07T06:30:18;18.80;89.90
13992;DHT22;7070;53.586;9.692;2023-09-07T06:32:46;18.90;89.80
13992;DHT22;7070;53.586;9.692;2023-09-07T06:35:14;19.00;89.80
13992;DHT22;7070;53.586;9.692;2023-09-07T06:37:41;19.10;89.80
13992;DHT22;7070;53.586;9.692;2023-09-07T06:40:09;19.10;89.60
13992;DHT22;7070;53.586;9.692;2023-09-07T06:42:37;19.20;89.50
13992;DHT22;7070;53.586;9.692;2023-09-07T06:45:04;19.20;89.30
13992;DHT22;7070;53.586;9.692;2023-09-07T06:47:32;19.30;89.30
13992;DHT22;7070;53.586;9.692;2023-09-07T06:50:02;19.40;89.10
13992;DHT22;7070;53.586;9.692;2023-09-07T06:52:29;19.50;89.00
13992;DHT22;7070;53.586;9.692;2023-09-07T06:54:56;19.50;89.00
13992;DHT22;7070;53.586;9.692;2023-09-07T06:57:23;19.60;88.90
13992;DHT22;7070;53.586;9.692;2023-09-07T06:59:50;19.60;88.80
13992;DHT22;7070;53.586;9.692;2023-09-07T07:02:17;19.70;88.60
13992;DHT22;7070;53.586;9.692;2023-09-07T07:04:44;19.80;88.50
13992;DHT22;7070;53.586;9.692;2023-09-07T07:07:13;19.80;88.40
13992;DHT22;7070;53.586;9.692;2023-09-07T07:09:40;19.90;88.30
13992;DHT22;7070;53.586;9.692;2023-09-07T07:12:06;20.00;88.20
13992;DHT22;7070;53.586;9.692;2023-09-07T07:14:33;20.10;88.10
13992;DHT22;7070;53.586;9.692;2023-09-07T07:17:00;20.10;87.90
13992;DHT22;7070;53.586;9.692;2023-09-07T07:19:30;20.30;87.90
13992;DHT22;7070;53.586;9.692;2023-09-07T07:21:57;20.30;87.60
13992;DHT22;7070;53.586;9.692;2023-09-07T07:24:25;20.40;87.60
13992;DHT22;7070;53.586;9.692;2023-09-07T07:26:52;20.50;87.50
13992;DHT22;7070;53.586;9.692;2023-09-07T07:29:19;20.60;87.40
13992;DHT22;7070;53.586;9.692;2023-09-07T07:31:45;20.70;87.20
13992;DHT22;7070;53.586;9.692;2023-09-07T07:34:13;20.80;87.10
13992;DHT22;7070;53.586;9.692;2023-09-07T07:36:40;20.80;86.80
13992;DHT22;7070;53.586;9.692;2023-09-07T07:39:07;21.00;86.70
13992;DHT22;7070;53.586;9.692;2023-09-07T07:41:35;21.10;86.60
13992;DHT22;7070;53.586;9.692;2023-09-07T07:44:03;21.20;86.40
13992;DHT22;7070;53.586;9.692;2023-09-07T07:46:30;21.20;86.30
13992;DHT22;7070;53.586;9.692;2023-09-07T07:48:57;21.40;86.20
13992;DHT22;7070;53.586;9.692;2023-09-07T07:51:24;21.40;86.00
13992;DHT22;7070;53.586;9.692;2023-09-07T07:53:53;21.60;86.00
13992;DHT22;7070;53.586;9.692;2023-09-07T07:56:21;21.70;85.80
13992;DHT22;7070;53.586;9.692;2023-09-07T07:58:49;21.70;85.50
13992;DHT22;7070;53.586;9.692;2023-09-07T08:01:18;21.80;85.40
13992;DHT22;7070;53.586;9.692;2023-09-07T08:03:46;21.90;85.30
13992;DHT22;7070;53.586;9.692;2023-09-07T08:06:13;22.10;85.10
13992;DHT22;7070;53.586;9.692;2023-09-07T08:08:40;22.10;84.90
13992;DHT22;7070;53.586;9.692;2023-09-07T08:11:07;22.20;84.70
13992;DHT22;7070;53.586;9.692;2023-09-07T08:13:35;22.30;84.50
13992;DHT22;7070;53.586;9.692;2023-09-07T08:16:04;22.40;84.30
13992;DHT22;7070;53.586;9.692;2023-09-07T08:18:33;22.50;84.20
13992;DHT22;7070;53.586;9.692;2023-09-07T08:21:00;22.60;84.10
13992;DHT22;7070;53.586;9.692;2023-09-07T08:23:27;22.80;84.00
13992;DHT22;7070;53.586;9.692;2023-09-07T08:25:54;22.80;83.70
13992;DHT22;7070;53.586;9.692;2023-09-07T08:28:21;22.90;83.60
13992;DHT22;7070;53.586;9.692;2023-09-07T08:30:49;23.00;83.50
13992;DHT22;7070;53.586;9.692;2023-09-07T08:33:20;23.10;83.30
13992;DHT22;7070;53.586;9.692;2023-09-07T08:35:52;23.20;83.20
13992;DHT22;7070;53.586;9.692;2023-09-07T08:38:21;23.30;83.00
13992;DHT22;7070;53.586;9.692;2023-09-07T08:40:53;23.40;82.80
13992;DHT22;7070;53.586;9.692;2023-09-07T08:43:20;23.50;82.50
13992;DHT22;7070;53.586;9.692;2023-09-07T08:45:51;23.60;82.30
13992;DHT22;7070;53.586;9.692;2023-09-07T08:48:26;23.70;82.20
13992;DHT22;7070;53.586;9.692;2023-09-07T08:50:55;23.80;81.80
13992;DHT22;7070;53.586;9.692;2023-09-07T08:53:25;23.80;81.40
13992;DHT22;7070;53.586;9.692;2023-09-07T08:55:51;23.90;81.20
13992;DHT22;7070;53.586;9.692;2023-09-07T08:58:19;24.00;81.00
13992;DHT22;7070;53.586;9.692;2023-09-07T09:00:46;24.10;80.80
13992;DHT22;7070;53.586;9.692;2023-09-07T09:03:14;24.20;80.60
13992;DHT22;7070;53.586;9.692;2023-09-07T09:05:43;24.30;80.50
13992;DHT22;7070;53.586;9.692;2023-09-07T09:08:11;24.30;80.20
13992;DHT22;7070;53.586;9.692;2023-09-07T09:10:38;24.40;79.80
13992;DHT22;7070;53.586;9.692;2023-09-07T09:13:06;24.50;79.80
13992;DHT22;7070;53.586;9.692;2023-09-07T09:15:32;24.60;79.80
13992;DHT22;7070;53.586;9.692;2023-09-07T09:18:09;24.70;79.60
13992;DHT22;7070;53.586;9.692;2023-09-07T09:20:37;24.70;79.50
13992;DHT22;7070;53.586;9.692;2023-09-07T09:23:06;24.80;79.20
13992;DHT22;7070;53.586;9.692;2023-09-07T09:25:33;24.90;79.20
13992;DHT22;7070;53.586;9.692;2023-09-07T09:28:00;25.00;79.00
13992;DHT22;7070;53.586;9.692;2023-09-07T09:30:27;25.10;78.80
13992;DHT22;7070;53.586;9.692;2023-09-07T09:32:54;25.10;78.40
13992;DHT22;7070;53.586;9.692;2023-09-07T09:35:21;25.20;78.10
13992;DHT22;7070;53.586;9.692;2023-09-07T09:37:49;25.30;77.90
13992;DHT22;7070;53.586;9.692;2023-09-07T09:40:18;25.30;77.80
13992;DHT22;7070;53.586;9.692;2023-09-07T09:42:45;25.40;77.80
13992;DHT22;7070;53.586;9.692;2023-09-07T09:45:12;25.50;77.50
13992;DHT22;7070;53.586;9.692;2023-09-07T09:47:40;25.50;77.30
13992;DHT22;7070;53.586;9.692;2023-09-07T09:50:08;25.60;77.20
13992;DHT22;7070;53.586;9.692;2023-09-07T09:52:36;25.60;76.90
13992;DHT22;7070;53.586;9.692;2023-09-07T09:55:07;25.60;76.70
13992;DHT22;7070;53.586;9.692;2023-09-07T09:57:39;25.70;76.70
13992;DHT22;7070;53.586;9.692;2023-09-07T10:00:07;25.80;76.40
13992;DHT22;7070;53.586;9.692;2023-09-07T10:02:54;25.80;76.10
13992;DHT22;7070;53.586;9.692;2023-09-07T10:05:23;25.80;76.10
13992;DHT22;7070;53.586;9.692;2023-09-07T10:07:51;25.90;75.90
13992;DHT22;7070;53.586;9.692;2023-09-07T10:10:19;25.90;75.60
13992;DHT22;7070;53.586;9.692;2023-09-07T10:12:53;26.00;75.70
13992;DHT22;7070;53.586;9.692;2023-09-07T10:15:21;26.10;75.70
13992;DHT22;7070;53.586;9.692;2023-09-07T10:17:48;26.10;75.50
13992;DHT22;7070;53.586;9.692;2023-09-07T10:20:16;26.10;75.30
13992;DHT22;7070;53.586;9.692;2023-09-07T10:22:44;26.20;75.30
13992;DHT22;7070;53.586;9.692;2023-09-07T10:25:22;26.20;75.10
13992;DHT22;7070;53.586;9.692;2023-09-07T10:27:50;26.20;75.30
13992;DHT22;7070;53.586;9.692;2023-09-07T10:30:17;26.30;75.10
13992;DHT22;7070;53.586;9.692;2023-09-07T10:32:49;26.30;74.80
13992;DHT22;7070;53.586;9.692;2023-09-07T10:35:18;26.40;74.60
13992;DHT22;7070;53.586;9.692;2023-09-07T10:37:47;26.40;74.20
13992;DHT22;7070;53.586;9.692;2023-09-07T10:40:19;26.50;74.00
13992;DHT22;7070;53.586;9.692;2023-09-07T10:42:46;26.50;73.70
13992;DHT22;7070;53.586;9.692;2023-09-07T10:45:16;26.50;73.20
13992;DHT22;7070;53.586;9.692;2023-09-07T10:47:43;26.50;73.00
13992;DHT22;7070;53.586;9.692;2023-09-07T10:50:11;26.60;72.80
13992;DHT22;7070;53.586;9.692;2023-09-07T10:52:39;26.70;72.70
13992;DHT22;7070;53.586;9.692;2023-09-07T10:55:07;26.70;72.50
13992;DHT22;7070;53.586;9.692;2023-09-07T10:57:41;26.70;72.20
13992;DHT22;7070;53.586;9.692;2023-09-07T11:00:10;26.70;72.30
13992;DHT22;7070;53.586;9.692;2023-09-07T11:02:39;26.70;72.00
13992;DHT22;7070;53.586;9.692;2023-09-07T11:05:06;26.80;71.80
13992;DHT22;7070;53.586;9.692;2023-09-07T11:07:33;26.80;71.40
13992;DHT22;7070;53.586;9.692;2023-09-07T11:10:01;26.80;71.40
13992;DHT22;7070;53.586;9.692;2023-09-07T11:12:30;26.90;71.40
13992;DHT22;7070;53.586;9.692;2023-09-07T11:14:58;26.90;71.20
13992;DHT22;7070;53.586;9.692;2023-09-07T11:17:26;26.90;71.10
13992;DHT22;7070;53.586;9.692;2023-09-07T11:19:55;26.90;71.00
13992;DHT22;7070;53.586;9.692;2023-09-07T11:22:22;27.00;70.90
13992;DHT22;7070;53.586;9.692;2023-09-07T11:24:49;27.00;70.70
13992;DHT22;7070;53.586;9.692;2023-09-07T11:27:17;27.00;70.50
13992;DHT22;7070;53.586;9.692;2023-09-07T11:29:51;27.10;70.70
13992;DHT22;7070;53.586;9.692;2023-09-07T11:32:18;27.10;71.00
13992;DHT22;7070;53.586;9.692;2023-09-07T11:34:47;27.10;70.40
13992;DHT22;7070;53.586;9.692;2023-09-07T11:37:17;27.10;70.40
13992;DHT22;7070;53.586;9.692;2023-09-07T11:39:44;27.20;70.40
13992;DHT22;7070;53.586;9.692;2023-09-07T11:42:11;27.20;70.20
13992;DHT22;7070;53.586;9.692;2023-09-07T11:44:38;27.30;70.10
13992;DHT22;7070;53.586;9.692;2023-09-07T11:47:05;27.30;70.10
13992;DHT22;7070;53.586;9.692;2023-09-07T11:49:32;27.30;69.80
13992;DHT22;7070;53.586;9.692;2023-09-07T11:51:59;27.30;69.40
13992;DHT22;7070;53.586;9.692;2023-09-07T11:54:27;27.40;69.30
13992;DHT22;7070;53.586;9.692;2023-09-07T11:56:54;27.40;69.10
13992;DHT22;7070;53.586;9.692;2023-09-07T11:59:21;27.40;69.00
13992;DHT22;7070;53.586;9.692;2023-09-07T12:01:48;27.40;68.80
13992;DHT22;7070;53.586;9.692;2023-09-07T12:04:16;27.50;68.80
13992;DHT22;7070;53.586;9.692;2023-09-07T12:06:43;27.50;68.90
13992;DHT22;7070;53.586;9.692;2023-09-07T12:09:10;27.50;68.60
13992;DHT22;7070;53.586;9.692;2023-09-07T12:11:38;27.50;68.40
13992;DHT22;7070;53.586;9.692;2023-09-07T12:14:05;27.50;68.20
13992;DHT22;7070;53.586;9.692;2023-09-07T12:16:31;27.50;68.10
13992;DHT22;7070;53.586;9.692;2023-09-07T12:18:58;27.50;68.00
13992;DHT22;7070;53.586;9.692;2023-09-07T12:21:25;27.60;68.80
13992;DHT22;7070;53.586;9.692;2023-09-07T12:23:52;27.60;67.90
13992;DHT22;7070;53.586;9.692;2023-09-07T12:26:19;27.60;68.00
13992;DHT22;7070;53.586;9.692;2023-09-07T12:28:47;27.60;68.00
13992;DHT22;7070;53.586;9.692;2023-09-07T12:31:14;27.60;68.30
13992;DHT22;7070;53.586;9.692;2023-09-07T12:33:42;27.60;68.20
13992;DHT22;7070;53.586;9.692;2023-09-07T12:36:09;27.60;67.80
13992;DHT22;7070;53.586;9.692;2023-09-07T12:38:37;27.70;67.90
13992;DHT22;7070;53.586;9.692;2023-09-07T12:41:04;27.70;67.90
13992;DHT22;7070;53.586;9.692;2023-09-07T12:43:31;27.70;68.10
13992;DHT22;7070;53.586;9.692;2023-09-07T12:46:00;27.70;67.90
13992;DHT22;7070;53.586;9.692;2023-09-07T12:48:27;27.70;67.70
13992;DHT22;7070;53.586;9.692;2023-09-07T12:50:54;27.70;67.50
13992;DHT22;7070;53.586;9.692;2023-09-07T12:53:21;27.70;67.50
13992;DHT22;7070;53.586;9.692;2023-09-07T12:55:51;27.70;67.50
13992;DHT22;7070;53.586;9.692;2023-09-07T12:58:18;27.70;67.30
13992;DHT22;7070;53.586;9.692;2023-09-07T13:00:46;27.80;67.40
13992;DHT22;7070;53.586;9.692;2023-09-07T13:03:14;27.80;68.30
13992;DHT22;7070;53.586;9.692;2023-09-07T13:05:41;27.80;67.50
13992;DHT22;7070;53.586;9.692;2023-09-07T13:08:09;27.80;67.20
13992;DHT22;7070;53.586;9.692;2023-09-07T13:10:36;27.80;67.40
13992;DHT22;7070;53.586;9.692;2023-09-07T13:13:03;27.80;67.10
13992;DHT22;7070;53.586;9.692;2023-09-07T13:15:30;27.80;66.90
13992;DHT22;7070;53.586;9.692;2023-09-07T13:17:57;27.90;66.80
13992;DHT22;7070;53.586;9.692;2023-09-07T13:20:25;27.80;66.40
13992;DHT22;7070;53.586;9.692;2023-09-07T13:22:52;27.90;66.50
13992;DHT22;7070;53.586;9.692;2023-09-07T13:25:19;27.90;66.40
13992;DHT22;7070;53.586;9.692;2023-09-07T13:27:46;27.90;66.30
13992;DHT22;7070;53.586;9.692;2023-09-07T13:30:13;27.90;65.90
13992;DHT22;7070;53.586;9.692;2023-09-07T13:32:39;27.90;65.70
13992;DHT22;7070;53.586;9.692;2023-09-07T13:35:07;27.90;65.80
13992;DHT22;7070;53.586;9.692;2023-09-07T13:37:35;28.00;65.70
13992;DHT22;7070;53.586;9.692;2023-09-07T13:40:02;27.90;65.50
13992;DHT22;7070;53.586;9.692;2023-09-07T13:42:29;27.90;65.10
13992;DHT22;7070;53.586;9.692;2023-09-07T13:44:56;28.00;65.10
13992;DHT22;7070;53.586;9.692;2023-09-07T13:47:23;27.90;64.80
13992;DHT22;7070;53.586;9.692;2023-09-07T13:49:50;28.00;65.10
13992;DHT22;7070;53.586;9.692;2023-09-07T13:52:17;28.00;65.20
13992;DHT22;7070;53.586;9.692;2023-09-07T13:54:45;28.00;65.10
13992;DHT22;7070;53.586;9.692;2023-09-07T13:57:12;28.00;65.30
13992;DHT22;7070;53.586;9.692;2023-09-07T13:59:38;28.00;64.80
13992;DHT22;7070;53.586;9.692;2023-09-07T14:02:06;28.00;64.80
13992;DHT22;7070;53.586;9.692;2023-09-07T14:04:32;28.00;65.50
13992;DHT22;7070;53.586;9.692;2023-09-07T14:06:59;28.00;64.40
13992;DHT22;7070;53.586;9.692;2023-09-07T14:09:26;28.00;64.40
13992;DHT22;7070;53.586;9.692;2023-09-07T14:11:54;28.00;64.50
13992;DHT22;7070;53.586;9.692;2023-09-07T14:14:21;28.10;64.80
13992;DHT22;7070;53.586;9.692;2023-09-07T14:16:48;28.00;64.40
13992;DHT22;7070;53.586;9.692;2023-09-07T14:19:20;28.10;64.40
13992;DHT22;7070;53.586;9.692;2023-09-07T14:21:47;28.00;64.00
13992;DHT22;7070;53.586;9.692;2023-09-07T14:24:14;28.00;64.00
13992;DHT22;7070;53.586;9.692;2023-09-07T14:26:41;28.00;63.70
13992;DHT22;7070;53.586;9.692;2023-09-07T14:29:09;28.00;63.80
13992;DHT22;7070;53.586;9.692;2023-09-07T14:31:36;28.00;63.90
13992;DHT22;7070;53.586;9.692;2023-09-07T14:34:04;28.00;64.10
13992;DHT22;7070;53.586;9.692;2023-09-07T14:36:31;28.00;63.90
13992;DHT22;7070;53.586;9.692;2023-09-07T14:38:57;28.00;64.00
13992;DHT22;7070;53.586;9.692;2023-09-07T14:41:25;28.00;63.80
13992;DHT22;7070;53.586;9.692;2023-09-07T14:43:53;28.00;63.70
13992;DHT22;7070;53.586;9.692;2023-09-07T14:46:21;27.90;63.70
13992;DHT22;7070;53.586;9.692;2023-09-07T14:48:50;27.90;63.70
13992;DHT22;7070;53.586;9.692;2023-09-07T14:51:17;28.00;63.70
13992;DHT22;7070;53.586;9.692;2023-09-07T14:53:44;28.00;63.80
13992;DHT22;7070;53.586;9.692;2023-09-07T14:56:11;28.00;63.90
13992;DHT22;7070;53.586;9.692;2023-09-07T14:58:38;27.90;63.70
13992;DHT22;7070;53.586;9.692;2023-09-07T15:01:05;27.90;63.70
13992;DHT22;7070;53.586;9.692;2023-09-07T15:03:34;27.90;63.60
13992;DHT22;7070;53.586;9.692;2023-09-07T15:06:05;27.80;63.50
13992;DHT22;7070;53.586;9.692;2023-09-07T15:08:32;27.90;63.40
13992;DHT22;7070;53.586;9.692;2023-09-07T15:10:59;27.80;63.30
13992;DHT22;7070;53.586;9.692;2023-09-07T15:13:26;27.80;63.40
13992;DHT22;7070;53.586;9.692;2023-09-07T15:15:55;27.80;63.30
13992;DHT22;7070;53.586;9.692;2023-09-07T15:18:22;27.90;63.20
13992;DHT22;7070;53.586;9.692;2023-09-07T15:20:50;27.80;62.90
13992;DHT22;7070;53.586;9.692;2023-09-07T15:23:22;27.80;63.10
13992;DHT22;7070;53.586;9.692;2023-09-07T15:25:49;27.80;63.00
13992;DHT22;7070;53.586;9.692;2023-09-07T15:28:18;27.80;63.10
13992;DHT22;7070;53.586;9.692;2023-09-07T15:30:44;27.70;63.00
13992;DHT22;7070;53.586;9.692;2023-09-07T15:33:11;27.80;63.20
13992;DHT22;7070;53.586;9.692;2023-09-07T15:35:38;27.70;63.30
13992;DHT22;7070;53.586;9.692;2023-09-07T15:38:06;27.70;63.40
13992;DHT22;7070;53.586;9.692;2023-09-07T15:40:33;27.70;63.70
13992;DHT22;7070;53.586;9.692;2023-09-07T15:43:01;27.60;63.50
13992;DHT22;7070;53.586;9.692;2023-09-07T15:45:28;27.60;63.50
13992;DHT22;7070;53.586;9.692;2023-09-07T15:47:55;27.60;63.60